sensor_id;sensor_type;location;lat;lon;timestamp;pressure;altitude;pressure_sealevel;temperature;humidity
54503;BME280;40411;50.090;21.954;2023-12-29T00:00:30;64477.59;;;12.25;66.76
54503;BME280;40411;50.090;21.954;2023-12-29T00:03:16;64574.91;;;11.82;67.98
54503;BME280;40411;50.090;21.954;2023-12-29T00:05:41;64584.63;;;11.62;69.28
54503;BME280;40411;50.090;21.954;2023-12-29T00:08:08;64588.63;;;11.76;68.70
54503;BME280;40411;50.090;21.954;2023-12-29T00:10:34;64606.84;;;11.42;69.38
54503;BME280;40411;50.090;21.954;2023-12-29T00:13:00;64627.31;;;11.51;69.55
54503;BME280;40411;50.090;21.954;2023-12-29T00:15:26;64573.31;;;11.74;68.82
54503;BME280;40411;50.090;21.954;2023-12-29T00:17:51;64479.91;;;12.20;67.88
54503;BME280;40411;50.090;21.954;2023-12-29T00:20:18;64537.03;;;11.96;67.49
54503;BME280;40411;50.090;21.954;2023-12-29T00:22:44;64580.28;;;11.68;68.85
54503;BME280;40411;50.090;21.954;2023-12-29T00:25:10;64490.84;;;12.11;67.71
54503;BME280;40411;50.090;21.954;2023-12-29T00:27:36;64594.00;;;11.78;68.84
54503;BME280;40411;50.090;21.954;2023-12-29T00:30:02;64472.19;;;12.23;66.89
54503;BME280;40411;50.090;21.954;2023-12-29T00:32:28;64576.91;;;11.89;67.36
54503;BME280;40411;50.090;21.954;2023-12-29T00:34:56;64653.88;;;11.49;69.75
54503;BME280;40411;50.090;21.954;2023-12-29T00:37:22;64621.88;;;11.73;69.39
54503;BME280;40411;50.090;21.954;2023-12-29T00:39:48;64582.97;;;11.78;68.89
54503;BME280;40411;50.090;21.954;2023-12-29T00:42:14;64539.56;;;11.86;68.71
54503;BME280;40411;50.090;21.954;2023-12-29T00:44:40;64504.91;;;12.10;67.38
54503;BME280;40411;50.090;21.954;2023-12-29T00:47:07;64533.94;;;11.88;68.36
54503;BME280;40411;50.090;21.954;2023-12-29T00:49:33;64500.13;;;12.17;66.38
54503;BME280;40411;50.090;21.954;2023-12-29T00:51:58;64485.94;;;12.16;67.09
54503;BME280;40411;50.090;21.954;2023-12-29T00:54:25;64444.78;;;12.46;66.36
54503;BME280;40411;50.090;21.954;2023-12-29T00:56:51;64563.34;;;11.98;67.56
54503;BME280;40411;50.090;21.954;2023-12-29T00:59:19;64355.03;;;12.79;65.44
54503;BME280;40411;50.090;21.954;2023-12-29T01:01:48;64389.03;;;12.60;65.63
54503;BME280;40411;50.090;21.954;2023-12-29T01:04:13;64464.41;;;12.33;66.28
54503;BME280;40411;50.090;21.954;2023-12-29T01:06:39;64489.22;;;12.36;66.63
54503;BME280;40411;50.090;21.954;2023-12-29T01:09:06;64461.25;;;12.32;66.25
54503;BME280;40411;50.090;21.954;2023-12-29T01:11:34;64363.28;;;12.77;64.70
54503;BME280;40411;50.090;21.954;2023-12-29T01:13:59;64559.84;;;11.76;67.57
54503;BME280;40411;50.090;21.954;2023-12-29T01:16:25;64492.28;;;12.17;67.36
54503;BME280;40411;50.090;21.954;2023-12-29T01:18:51;64461.03;;;12.46;66.22
54503;BME280;40411;50.090;21.954;2023-12-29T01:21:18;64417.31;;;12.69;64.96
54503;BME280;40411;50.090;21.954;2023-12-29T01:23:43;64378.88;;;12.74;64.92
54503;BME280;40411;50.090;21.954;2023-12-29T01:26:10;64504.91;;;12.10;66.68
54503;BME280;40411;50.090;21.954;2023-12-29T01:28:35;64491.13;;;12.06;66.70
54503;BME280;40411;50.090;21.954;2023-12-29T01:31:03;64486.16;;;12.12;67.64
54503;BME280;40411;50.090;21.954;2023-12-29T01:33:29;64441.16;;;12.38;66.17
54503;BME280;40411;50.090;21.954;2023-12-29T01:35:55;64476.31;;;12.22;66.74
54503;BME280;40411;50.090;21.954;2023-12-29T01:38:22;64524.09;;;11.98;67.71
54503;BME280;40411;50.090;21.954;2023-12-29T01:40:48;64469.84;;;12.45;66.43
54503;BME280;40411;50.090;21.954;2023-12-29T01:43:14;64429.09;;;12.56;66.77
54503;BME280;40411;50.090;21.954;2023-12-29T01:45:40;64493.72;;;12.06;67.63
54503;BME280;40411;50.090;21.954;2023-12-29T01:48:07;64533.59;;;11.83;68.81
54503;BME280;40411;50.090;21.954;2023-12-29T01:50:33;64606.34;;;11.58;70.00
54503;BME280;40411;50.090;21.954;2023-12-29T01:53:01;64594.78;;;11.57;70.10
54503;BME280;40411;50.090;21.954;2023-12-29T01:55:29;64578.22;;;11.69;69.45
54503;BME280;40411;50.090;21.954;2023-12-29T01:57:55;64494.53;;;12.02;68.80
54503;BME280;40411;50.090;21.954;2023-12-29T02:00:21;64559.00;;;11.87;69.36
54503;BME280;40411;50.090;21.954;2023-12-29T02:02:49;64561.00;;;11.70;70.23
54503;BME280;40411;50.090;21.954;2023-12-29T02:05:16;64479.53;;;12.05;68.60
54503;BME280;40411;50.090;21.954;2023-12-29T02:07:43;64526.63;;;12.05;68.71
54503;BME280;40411;50.090;21.954;2023-12-29T02:10:09;64538.38;;;11.92;69.39
54503;BME280;40411;50.090;21.954;2023-12-29T02:12:41;64513.94;;;11.87;69.15
54503;BME280;40411;50.090;21.954;2023-12-29T02:15:07;64492.28;;;12.00;68.75
54503;BME280;40411;50.090;21.954;2023-12-29T02:17:44;64494.41;;;12.26;68.31
54503;BME280;40411;50.090;21.954;2023-12-29T02:20:11;64438.28;;;12.42;67.44
54503;BME280;40411;50.090;21.954;2023-12-29T02:22:38;64327.31;;;12.80;66.13
54503;BME280;40411;50.090;21.954;2023-12-29T02:25:05;64276.88;;;12.96;65.85
54503;BME280;40411;50.090;21.954;2023-12-29T02:27:52;64309.03;;;13.09;64.85
54503;BME280;40411;50.090;21.954;2023-12-29T02:32:50;64402.66;;;12.34;67.79
54503;BME280;40411;50.090;21.954;2023-12-29T02:35:25;64505.09;;;11.95;69.43
54503;BME280;40411;50.090;21.954;2023-12-29T02:37:53;64388.81;;;12.47;67.44
54503;BME280;40411;50.090;21.954;2023-12-29T02:40:20;64497.53;;;12.00;69.29
54503;BME280;40411;50.090;21.954;2023-12-29T02:42:47;64456.78;;;12.28;68.52
54503;BME280;40411;50.090;21.954;2023-12-29T02:45:14;64659.31;;;11.21;72.45
54503;BME280;40411;50.090;21.954;2023-12-29T02:47:41;64529.94;;;11.75;70.83
54503;BME280;40411;50.090;21.954;2023-12-29T02:50:08;64451.06;;;12.37;68.12
54503;BME280;40411;50.090;21.954;2023-12-29T02:52:33;64573.63;;;11.79;70.02
54503;BME280;40411;50.090;21.954;2023-12-29T02:54:59;64528.69;;;11.88;69.88
54503;BME280;40411;50.090;21.954;2023-12-29T02:57:25;64443.19;;;12.11;68.87
54503;BME280;40411;50.090;21.954;2023-12-29T02:59:51;64644.16;;;11.28;72.37
54503;BME280;40411;50.090;21.954;2023-12-29T03:02:17;64593.34;;;11.51;71.92
54503;BME280;40411;50.090;21.954;2023-12-29T03:04:43;64616.22;;;11.41;71.89
54503;BME280;40411;50.090;21.954;2023-12-29T03:07:09;64471.09;;;12.22;69.73
54503;BME280;40411;50.090;21.954;2023-12-29T03:09:36;64448.13;;;12.05;69.33
54503;BME280;40411;50.090;21.954;2023-12-29T03:12:01;64474.69;;;12.03;70.08
54503;BME280;40411;50.090;21.954;2023-12-29T03:14:27;64463.41;;;12.24;69.42
54503;BME280;40411;50.090;21.954;2023-12-29T03:16:53;64545.03;;;11.65;71.49
54503;BME280;40411;50.090;21.954;2023-12-29T03:19:19;64537.56;;;11.79;71.26
54503;BME280;40411;50.090;21.954;2023-12-29T03:21:45;64494.91;;;12.00;70.31
54503;BME280;40411;50.090;21.954;2023-12-29T03:24:11;64422.13;;;12.35;68.99
54503;BME280;40411;50.090;21.954;2023-12-29T03:26:36;64530.28;;;11.80;71.05
54503;BME280;40411;50.090;21.954;2023-12-29T03:29:04;64529.88;;;11.82;71.35
54503;BME280;40411;50.090;21.954;2023-12-29T03:31:30;64496.22;;;11.87;70.77
54503;BME280;40411;50.090;21.954;2023-12-29T03:33:56;64573.84;;;11.57;72.07
54503;BME280;40411;50.090;21.954;2023-12-29T03:36:21;64402.03;;;12.40;68.80
54503;BME280;40411;50.090;21.954;2023-12-29T03:38:47;64511.91;;;11.87;70.58
54503;BME280;40411;50.090;21.954;2023-12-29T03:41:13;64540.03;;;11.94;71.03
54503;BME280;40411;50.090;21.954;2023-12-29T03:43:40;64529.22;;;11.72;72.13
54503;BME280;40411;50.090;21.954;2023-12-29T03:46:21;64541.38;;;11.56;72.14
54503;BME280;40411;50.090;21.954;2023-12-29T03:48:47;64522.41;;;11.80;70.95
54503;BME280;40411;50.090;21.954;2023-12-29T03:51:15;64609.03;;;11.27;73.71
54503;BME280;40411;50.090;21.954;2023-12-29T03:53:41;64392.56;;;12.22;70.19
54503;BME280;40411;50.090;21.954;2023-12-29T03:56:09;64498.03;;;11.91;70.39
54503;BME280;40411;50.090;21.954;2023-12-29T03:58:35;64501.09;;;11.82;71.98
54503;BME280;40411;50.090;21.954;2023-12-29T04:01:01;64471.59;;;12.13;69.56
54503;BME280;40411;50.090;21.954;2023-12-29T04:03:27;64420.91;;;12.14;70.80
54503;BME280;40411;50.090;21.954;2023-12-29T04:05:53;64557.19;;;11.42;72.90
54503;BME280;40411;50.090;21.954;2023-12-29T04:08:19;64522.81;;;11.61;72.69
54503;BME280;40411;50.090;21.954;2023-12-29T04:10:45;64573.16;;;11.30;73.50
54503;BME280;40411;50.090;21.954;2023-12-29T04:13:11;64566.19;;;11.36;73.40
54503;BME280;40411;50.090;21.954;2023-12-29T04:15:37;64560.91;;;11.43;73.80
54503;BME280;40411;50.090;21.954;2023-12-29T04:18:03;64557.50;;;11.47;73.11
54503;BME280;40411;50.090;21.954;2023-12-29T04:20:29;64591.31;;;11.04;75.19
54503;BME280;40411;50.090;21.954;2023-12-29T04:22:55;64587.25;;;11.22;74.05
54503;BME280;40411;50.090;21.954;2023-12-29T04:25:21;64609.06;;;11.03;74.56
54503;BME280;40411;50.090;21.954;2023-12-29T04:27:47;64582.81;;;11.17;74.16
54503;BME280;40411;50.090;21.954;2023-12-29T04:30:13;64568.75;;;11.43;72.64
54503;BME280;40411;50.090;21.954;2023-12-29T04:32:39;64595.88;;;11.17;74.15
54503;BME280;40411;50.090;21.954;2023-12-29T04:35:05;64636.81;;;11.12;74.56
54503;BME280;40411;50.090;21.954;2023-12-29T04:37:31;64657.69;;;10.88;74.87
54503;BME280;40411;50.090;21.954;2023-12-29T04:39:57;64640.50;;;10.89;75.51
54503;BME280;40411;50.090;21.954;2023-12-29T04:42:23;64672.47;;;10.82;75.84
54503;BME280;40411;50.090;21.954;2023-12-29T04:44:50;64633.72;;;10.97;75.48
54503;BME280;40411;50.090;21.954;2023-12-29T04:47:16;64612.72;;;11.11;74.04
54503;BME280;40411;50.090;21.954;2023-12-29T04:49:43;64689.94;;;10.93;74.65
54503;BME280;40411;50.090;21.954;2023-12-29T04:52:09;64568.94;;;11.22;74.52
54503;BME280;40411;50.090;21.954;2023-12-29T04:54:35;64637.84;;;10.96;75.29
54503;BME280;40411;50.090;21.954;2023-12-29T04:57:01;64652.50;;;10.81;75.28
54503;BME280;40411;50.090;21.954;2023-12-29T04:59:26;64656.28;;;10.74;75.61
54503;BME280;40411;50.090;21.954;2023-12-29T05:01:52;64607.81;;;11.16;73.89
54503;BME280;40411;50.090;21.954;2023-12-29T05:04:18;64697.72;;;10.69;75.72
54503;BME280;40411;50.090;21.954;2023-12-29T05:06:44;64559.00;;;11.46;72.68
54503;BME280;40411;50.090;21.954;2023-12-29T05:09:10;64659.38;;;11.13;72.76
54503;BME280;40411;50.090;21.954;2023-12-29T05:11:36;64721.69;;;10.53;75.23
54503;BME280;40411;50.090;21.954;2023-12-29T05:14:01;64688.69;;;10.83;73.76
54503;BME280;40411;50.090;21.954;2023-12-29T05:16:27;64643.75;;;11.06;72.86
54503;BME280;40411;50.090;21.954;2023-12-29T05:18:53;64687.78;;;11.08;73.04
54503;BME280;40411;50.090;21.954;2023-12-29T05:21:19;64624.63;;;11.17;73.04
54503;BME280;40411;50.090;21.954;2023-12-29T05:23:46;64652.59;;;11.22;72.78
54503;BME280;40411;50.090;21.954;2023-12-29T05:26:16;64620.06;;;11.28;71.56
54503;BME280;40411;50.090;21.954;2023-12-29T05:28:42;64643.84;;;11.16;72.42
54503;BME280;40411;50.090;21.954;2023-12-29T05:31:08;64615.94;;;11.29;71.51
54503;BME280;40411;50.090;21.954;2023-12-29T05:33:34;64648.19;;;11.34;71.25
54503;BME280;40411;50.090;21.954;2023-12-29T05:36:06;64614.94;;;11.37;70.71
54503;BME280;40411;50.090;21.954;2023-12-29T05:38:33;64559.53;;;11.71;69.82
54503;BME280;40411;50.090;21.954;2023-12-29T05:41:01;64543.75;;;11.78;69.64
54503;BME280;40411;50.090;21.954;2023-12-29T05:43:30;64631.28;;;11.24;71.26
54503;BME280;40411;50.090;21.954;2023-12-29T05:45:58;64457.88;;;12.02;68.44
54503;BME280;40411;50.090;21.954;2023-12-29T05:48:24;64577.66;;;11.68;69.15
54503;BME280;40411;50.090;21.954;2023-12-29T05:50:50;64580.59;;;11.56;68.97
54503;BME280;40411;50.090;21.954;2023-12-29T05:53:16;64536.59;;;11.81;68.80
54503;BME280;40411;50.090;21.954;2023-12-29T05:55:43;64644.91;;;11.24;70.21
54503;BME280;40411;50.090;21.954;2023-12-29T05:58:09;64789.41;;;10.43;73.78
54503;BME280;40411;50.090;21.954;2023-12-29T06:00:36;64732.13;;;10.53;74.29
54503;BME280;40411;50.090;21.954;2023-12-29T06:03:02;64823.41;;;10.07;75.33
54503;BME280;40411;50.090;21.954;2023-12-29T06:05:30;64716.41;;;10.67;73.09
54503;BME280;40411;50.090;21.954;2023-12-29T06:07:56;64784.81;;;10.22;74.97
54503;BME280;40411;50.090;21.954;2023-12-29T06:10:22;64760.88;;;10.46;73.34
54503;BME280;40411;50.090;21.954;2023-12-29T06:12:48;64744.03;;;10.59;73.28
54503;BME280;40411;50.090;21.954;2023-12-29T06:15:15;64770.44;;;10.26;74.82
54503;BME280;40411;50.090;21.954;2023-12-29T06:17:40;64810.88;;;10.37;73.60
54503;BME280;40411;50.090;21.954;2023-12-29T06:20:08;64798.75;;;10.42;73.47
54503;BME280;40411;50.090;21.954;2023-12-29T06:22:39;64774.75;;;10.20;74.11
54503;BME280;40411;50.090;21.954;2023-12-29T06:25:12;64757.59;;;10.28;74.44
54503;BME280;40411;50.090;21.954;2023-12-29T06:27:39;64823.97;;;10.22;73.84
54503;BME280;40411;50.090;21.954;2023-12-29T06:30:07;64681.53;;;10.93;71.46
54503;BME280;40411;50.090;21.954;2023-12-29T06:32:33;64727.41;;;10.68;72.15
54503;BME280;40411;50.090;21.954;2023-12-29T06:34:59;64793.34;;;10.40;73.71
54503;BME280;40411;50.090;21.954;2023-12-29T06:37:25;64817.97;;;10.26;73.80
54503;BME280;40411;50.090;21.954;2023-12-29T06:39:51;64794.84;;;10.24;74.39
54503;BME280;40411;50.090;21.954;2023-12-29T06:42:17;64808.72;;;10.06;75.70
54503;BME280;40411;50.090;21.954;2023-12-29T06:44:43;64719.31;;;10.41;73.45
54503;BME280;40411;50.090;21.954;2023-12-29T06:47:08;64738.72;;;10.35;73.16
54503;BME280;40411;50.090;21.954;2023-12-29T06:49:35;64752.00;;;10.23;74.39
54503;BME280;40411;50.090;21.954;2023-12-29T06:52:01;64729.56;;;10.39;74.07
54503;BME280;40411;50.090;21.954;2023-12-29T06:54:27;64771.78;;;10.08;74.50
54503;BME280;40411;50.090;21.954;2023-12-29T06:56:53;64713.00;;;10.71;72.36
54503;BME280;40411;50.090;21.954;2023-12-29T06:59:19;64719.09;;;10.53;72.27
54503;BME280;40411;50.090;21.954;2023-12-29T07:01:46;64751.63;;;10.18;73.65
54503;BME280;40411;50.090;21.954;2023-12-29T07:04:12;64778.16;;;10.62;72.63
54503;BME280;40411;50.090;21.954;2023-12-29T07:06:38;64752.88;;;10.43;73.25
54503;BME280;40411;50.090;21.954;2023-12-29T07:09:04;64656.19;;;10.89;72.06
54503;BME280;40411;50.090;21.954;2023-12-29T07:11:30;64618.41;;;11.26;69.50
54503;BME280;40411;50.090;21.954;2023-12-29T07:13:56;64635.97;;;10.99;70.79
54503;BME280;40411;50.090;21.954;2023-12-29T07:16:22;64581.25;;;11.26;70.43
54503;BME280;40411;50.090;21.954;2023-12-29T07:18:48;64470.72;;;12.07;66.49
54503;BME280;40411;50.090;21.954;2023-12-29T07:21:14;64468.84;;;11.93;67.17
54503;BME280;40411;50.090;21.954;2023-12-29T07:23:42;64463.81;;;12.05;66.43
54503;BME280;40411;50.090;21.954;2023-12-29T07:26:08;64510.06;;;11.83;66.94
54503;BME280;40411;50.090;21.954;2023-12-29T07:28:34;64549.69;;;11.81;66.83
54503;BME280;40411;50.090;21.954;2023-12-29T07:31:01;64561.31;;;11.58;67.75
54503;BME280;40411;50.090;21.954;2023-12-29T07:33:27;64706.53;;;10.92;69.59
54503;BME280;40411;50.090;21.954;2023-12-29T07:35:53;64614.00;;;11.15;69.72
54503;BME280;40411;50.090;21.954;2023-12-29T07:38:20;64708.09;;;10.84;70.75
54503;BME280;40411;50.090;21.954;2023-12-29T07:40:46;64708.84;;;10.80;71.16
54503;BME280;40411;50.090;21.954;2023-12-29T07:43:13;64675.94;;;10.95;70.84
54503;BME280;40411;50.090;21.954;2023-12-29T07:45:40;64588.00;;;11.41;69.34
54503;BME280;40411;50.090;21.954;2023-12-29T07:48:06;64556.66;;;11.75;67.71
54503;BME280;40411;50.090;21.954;2023-12-29T07:50:32;64445.72;;;12.18;65.96
54503;BME280;40411;50.090;21.954;2023-12-29T07:52:58;64327.47;;;12.83;62.65
54503;BME280;40411;50.090;21.954;2023-12-29T07:55:26;64324.41;;;12.75;63.56
54503;BME280;40411;50.090;21.954;2023-12-29T07:57:52;64325.94;;;12.84;63.38
54503;BME280;40411;50.090;21.954;2023-12-29T08:00:19;64193.69;;;13.38;61.87
54503;BME280;40411;50.090;21.954;2023-12-29T08:02:45;64125.47;;;13.48;61.12
54503;BME280;40411;50.090;21.954;2023-12-29T08:05:11;63814.03;;;14.54;57.64
54503;BME280;40411;50.090;21.954;2023-12-29T08:07:38;64043.22;;;14.13;57.74
54503;BME280;40411;50.090;21.954;2023-12-29T08:10:06;64038.81;;;14.09;58.13
54503;BME280;40411;50.090;21.954;2023-12-29T08:12:33;64277.59;;;13.38;59.53
54503;BME280;40411;50.090;21.954;2023-12-29T08:15:00;64360.91;;;12.63;63.46
54503;BME280;40411;50.090;21.954;2023-12-29T08:17:26;64339.31;;;12.79;62.61
54503;BME280;40411;50.090;21.954;2023-12-29T08:19:52;64330.22;;;12.85;62.85
54503;BME280;40411;50.090;21.954;2023-12-29T08:22:19;64241.72;;;13.34;61.17
54503;BME280;40411;50.090;21.954;2023-12-29T08:24:45;64255.66;;;13.21;61.64
54503;BME280;40411;50.090;21.954;2023-12-29T08:27:12;64319.78;;;13.05;61.26
54503;BME280;40411;50.090;21.954;2023-12-29T08:29:39;64198.09;;;13.43;60.75
54503;BME280;40411;50.090;21.954;2023-12-29T08:32:05;64250.28;;;13.18;62.40
54503;BME280;40411;50.090;21.954;2023-12-29T08:34:31;64253.13;;;12.94;63.27
54503;BME280;40411;50.090;21.954;2023-12-29T08:36:57;64246.00;;;13.07;63.52
54503;BME280;40411;50.090;21.954;2023-12-29T08:39:23;64365.72;;;12.28;66.41
54503;BME280;40411;50.090;21.954;2023-12-29T08:41:49;64390.19;;;12.44;65.78
54503;BME280;40411;50.090;21.954;2023-12-29T08:44:15;64418.53;;;12.36;65.79
54503;BME280;40411;50.090;21.954;2023-12-29T08:46:41;64340.66;;;12.75;64.15
54503;BME280;40411;50.090;21.954;2023-12-29T08:49:07;64383.28;;;12.42;65.87
54503;BME280;40411;50.090;21.954;2023-12-29T08:51:33;64380.22;;;12.35;66.18
54503;BME280;40411;50.090;21.954;2023-12-29T08:53:59;64215.50;;;13.34;62.10
54503;BME280;40411;50.090;21.954;2023-12-29T08:56:25;64152.00;;;13.44;62.57
54503;BME280;40411;50.090;21.954;2023-12-29T08:58:51;64304.31;;;12.90;63.65
54503;BME280;40411;50.090;21.954;2023-12-29T09:01:18;64198.13;;;13.33;61.90
54503;BME280;40411;50.090;21.954;2023-12-29T09:03:45;64364.91;;;12.69;63.91
54503;BME280;40411;50.090;21.954;2023-12-29T09:06:11;64307.72;;;12.77;64.02
54503;BME280;40411;50.090;21.954;2023-12-29T09:08:37;64230.81;;;13.17;63.25
54503;BME280;40411;50.090;21.954;2023-12-29T09:11:04;64312.84;;;12.84;63.65
54503;BME280;40411;50.090;21.954;2023-12-29T09:13:30;64209.44;;;13.29;62.36
54503;BME280;40411;50.090;21.954;2023-12-29T09:15:55;64204.75;;;13.29;62.16
54503;BME280;40411;50.090;21.954;2023-12-29T09:18:21;64126.44;;;13.56;61.34
54503;BME280;40411;50.090;21.954;2023-12-29T09:20:47;64196.75;;;13.27;61.70
54503;BME280;40411;50.090;21.954;2023-12-29T09:23:13;64269.00;;;12.96;63.59
54503;BME280;40411;50.090;21.954;2023-12-29T09:33:27;64415.47;;;11.85;72.78
54503;BME280;40411;50.090;21.954;2023-12-29T09:35:54;64506.19;;;11.62;71.48
54503;BME280;40411;50.090;21.954;2023-12-29T09:38:19;64441.88;;;11.80;70.56
54503;BME280;40411;50.090;21.954;2023-12-29T09:40:46;64138.78;;;13.22;64.65
54503;BME280;40411;50.090;21.954;2023-12-29T09:43:14;64090.03;;;13.42;64.58
54503;BME280;40411;50.090;21.954;2023-12-29T09:45:42;64191.91;;;12.95;66.63
54503;BME280;40411;50.090;21.954;2023-12-29T09:48:11;64166.13;;;12.93;65.20
54503;BME280;40411;50.090;21.954;2023-12-29T09:50:39;64283.59;;;12.76;66.63
54503;BME280;40411;50.090;21.954;2023-12-29T09:53:06;64099.69;;;13.46;64.14
54503;BME280;40411;50.090;21.954;2023-12-29T09:55:36;64236.19;;;12.90;65.83
54503;BME280;40411;50.090;21.954;2023-12-29T09:58:02;64231.22;;;12.86;66.11
54503;BME280;40411;50.090;21.954;2023-12-29T10:00:29;64350.88;;;12.34;67.05
54503;BME280;40411;50.090;21.954;2023-12-29T10:02:55;64251.47;;;12.83;66.52
54503;BME280;40411;50.090;21.954;2023-12-29T10:05:21;64370.81;;;12.26;68.35
54503;BME280;40411;50.090;21.954;2023-12-29T10:59:19;64511.38;;;11.12;75.16
54503;BME280;40411;50.090;21.954;2023-12-29T11:01:45;64569.03;;;10.90;76.47
54503;BME280;40411;50.090;21.954;2023-12-29T11:04:13;64596.22;;;10.74;76.83
54503;BME280;40411;50.090;21.954;2023-12-29T11:06:44;64467.19;;;11.41;74.24
54503;BME280;40411;50.090;21.954;2023-12-29T11:09:12;64469.03;;;11.45;72.98
54503;BME280;40411;50.090;21.954;2023-12-29T11:11:39;64334.44;;;11.95;71.07
54503;BME280;40411;50.090;21.954;2023-12-29T11:14:05;64342.84;;;11.95;71.78
54503;BME280;40411;50.090;21.954;2023-12-29T11:16:31;64428.25;;;11.80;70.95
54503;BME280;40411;50.090;21.954;2023-12-29T11:19:01;64529.03;;;11.18;72.74
54503;BME280;40411;50.090;21.954;2023-12-29T11:21:30;64275.53;;;12.44;69.83
54503;BME280;40411;50.090;21.954;2023-12-29T11:23:57;64288.50;;;12.51;67.70
54503;BME280;40411;50.090;21.954;2023-12-29T11:26:25;64436.91;;;11.76;69.81
54503;BME280;40411;50.090;21.954;2023-12-29T11:28:53;64451.09;;;11.60;70.90
54503;BME280;40411;50.090;21.954;2023-12-29T11:31:20;64417.31;;;11.72;71.63
54503;BME280;40411;50.090;21.954;2023-12-29T11:33:51;64472.66;;;11.70;71.64
54503;BME280;40411;50.090;21.954;2023-12-29T11:36:23;64514.41;;;11.27;71.92
54503;BME280;40411;50.090;21.954;2023-12-29T11:42:00;64344.75;;;12.19;68.50
54503;BME280;40411;50.090;21.954;2023-12-29T11:44:28;64322.94;;;12.49;67.27
54503;BME280;40411;50.090;21.954;2023-12-29T11:46:56;64349.66;;;12.40;66.83
54503;BME280;40411;50.090;21.954;2023-12-29T11:49:25;64393.16;;;12.32;67.84
54503;BME280;40411;50.090;21.954;2023-12-29T11:51:52;64365.63;;;12.36;66.83
54503;BME280;40411;50.090;21.954;2023-12-29T11:54:22;64418.63;;;12.02;69.33
54503;BME280;40411;50.090;21.954;2023-12-29T11:56:49;64313.72;;;12.53;67.33
54503;BME280;40411;50.090;21.954;2023-12-29T12:01:55;64299.53;;;12.52;66.87
54503;BME280;40411;50.090;21.954;2023-12-29T12:04:41;64289.06;;;12.62;66.32
54503;BME280;40411;50.090;21.954;2023-12-29T12:07:13;64316.75;;;12.51;66.06
54503;BME280;40411;50.090;21.954;2023-12-29T12:09:39;64236.84;;;12.74;65.80
54503;BME280;40411;50.090;21.954;2023-12-29T12:12:05;64271.03;;;12.67;65.85
54503;BME280;40411;50.090;21.954;2023-12-29T12:14:52;64288.50;;;12.51;66.43
54503;BME280;40411;50.090;21.954;2023-12-29T12:17:34;64136.88;;;13.15;65.61
54503;BME280;40411;50.090;21.954;2023-12-29T12:20:08;63880.13;;;14.18;61.82
54503;BME280;40411;50.090;21.954;2023-12-29T12:22:35;64023.75;;;13.80;61.43
54503;BME280;40411;50.090;21.954;2023-12-29T12:25:02;64002.00;;;13.97;61.21
54503;BME280;40411;50.090;21.954;2023-12-29T12:27:30;64128.25;;;13.51;61.68
54503;BME280;40411;50.090;21.954;2023-12-29T12:29:58;63979.69;;;13.81;61.44
54503;BME280;40411;50.090;21.954;2023-12-29T12:32:26;64141.94;;;13.41;61.96
54503;BME280;40411;50.090;21.954;2023-12-29T12:34:52;64020.34;;;13.75;62.70
54503;BME280;40411;50.090;21.954;2023-12-29T12:37:20;64297.81;;;12.87;63.70
54503;BME280;40411;50.090;21.954;2023-12-29T12:39:46;64167.47;;;13.38;61.96
54503;BME280;40411;50.090;21.954;2023-12-29T12:42:13;64150.09;;;13.27;62.39
54503;BME280;40411;50.090;21.954;2023-12-29T12:44:41;64189.16;;;13.12;63.57
54503;BME280;40411;50.090;21.954;2023-12-29T12:47:10;64189.00;;;13.10;63.07
54503;BME280;40411;50.090;21.954;2023-12-29T12:49:41;64247.91;;;13.04;62.71
54503;BME280;40411;50.090;21.954;2023-12-29T12:52:08;64165.84;;;13.27;63.56
54503;BME280;40411;50.090;21.954;2023-12-29T12:54:34;64251.63;;;13.05;63.43
54503;BME280;40411;50.090;21.954;2023-12-29T12:57:01;64261.97;;;13.02;63.65
54503;BME280;40411;50.090;21.954;2023-12-29T12:59:28;64268.16;;;12.81;64.41
54503;BME280;40411;50.090;21.954;2023-12-29T13:01:54;64222.94;;;12.97;63.87
54503;BME280;40411;50.090;21.954;2023-12-29T13:04:20;64336.56;;;12.86;63.64
54503;BME280;40411;50.090;21.954;2023-12-29T13:06:46;64293.53;;;12.85;64.47
54503;BME280;40411;50.090;21.954;2023-12-29T13:09:14;64254.50;;;12.81;65.95
54503;BME280;40411;50.090;21.954;2023-12-29T13:11:45;64346.34;;;12.37;66.92
54503;BME280;40411;50.090;21.954;2023-12-29T13:14:30;64467.88;;;11.95;68.26
54503;BME280;40411;50.090;21.954;2023-12-29T13:16:56;64410.72;;;12.19;67.98
54503;BME280;40411;50.090;21.954;2023-12-29T13:19:23;64458.78;;;11.91;68.84
54503;BME280;40411;50.090;21.954;2023-12-29T13:21:54;64504.09;;;11.80;69.17
54503;BME280;40411;50.090;21.954;2023-12-29T13:24:25;64423.22;;;12.09;68.03
54503;BME280;40411;50.090;21.954;2023-12-29T13:26:54;64504.06;;;11.87;68.21
54503;BME280;40411;50.090;21.954;2023-12-29T13:29:24;64501.09;;;11.82;68.23
54503;BME280;40411;50.090;21.954;2023-12-29T13:32:05;64625.34;;;11.21;70.67
54503;BME280;40411;50.090;21.954;2023-12-29T13:40:16;64550.38;;;11.50;70.25
54503;BME280;40411;50.090;21.954;2023-12-29T13:42:48;64537.78;;;11.41;70.97
54503;BME280;40411;50.090;21.954;2023-12-29T13:45:17;64551.72;;;11.47;70.16
54503;BME280;40411;50.090;21.954;2023-12-29T13:47:45;64625.22;;;11.11;71.89
54503;BME280;40411;50.090;21.954;2023-12-29T13:50:11;64676.34;;;10.86;73.13
54503;BME280;40411;50.090;21.954;2023-12-29T13:52:38;64631.63;;;11.05;72.14
54503;BME280;40411;50.090;21.954;2023-12-29T13:55:04;64666.31;;;10.84;72.58
54503;BME280;40411;50.090;21.954;2023-12-29T13:57:33;64652.50;;;10.81;73.16
54503;BME280;40411;50.090;21.954;2023-12-29T14:00:15;64692.09;;;10.79;72.90
54503;BME280;40411;50.090;21.954;2023-12-29T14:02:44;64721.00;;;10.43;74.40